This is the latest recevied weather packets stored in our database for station/object EB1TR-13. If no packets are shown the sender has not sent any weather packets the latest 10 day(s).
| Time | Temp. | Humidity | Pressure | Rain* | Wind** | Luminosity | Snow |
|---|---|---|---|---|---|---|---|
| 1778102086 | 13.89° C | 89% | 1014 hPa | 0 mm | - | 0 W/m² | - |
| 1778101186 | 13.89° C | 86% | 1014 hPa | 0 mm | - | 0 W/m² | - |
| 1778100286 | 13.89° C | 86% | 1014 hPa | 0 mm | - | 0 W/m² | - |
| 1778099386 | 13.89° C | 86% | 1014 hPa | 0 mm | - | 0 W/m² | - |
| 1778098486 | 13.89° C | 86% | 1014 hPa | 0 mm | - | 0 W/m² | - |
| 1778097586 | 13.89° C | 86% | 1014 hPa | 0 mm | - | 0 W/m² | - |
| 1778096686 | 15° C | 82% | 1014 hPa | 0 mm | - | 0 W/m² | - |
| 1778095786 | 15° C | 80% | 1014 hPa | 0 mm | - | 0 W/m² | - |
| 1778094886 | 15° C | 80% | 1014 hPa | 0 mm | - | 0 W/m² | - |
| 1778093986 | 15° C | 79% | 1014 hPa | 0 mm | - | 0 W/m² | - |
| 1778093090 | 15.56° C | 79% | 1014 hPa | 0 mm | - | 0 W/m² | - |
| 1778092186 | 15.56° C | 79% | 1014 hPa | 0 mm | - | 0 W/m² | - |
| 1778091286 | 15.56° C | 79% | 1014 hPa | 0 mm | - | 0 W/m² | - |
| 1778090386 | 15.56° C | 79% | 1014 hPa | 0 mm | - | 0 W/m² | - |
| 1778089486 | 16.11° C | 79% | 1014 hPa | 0 mm | - | 0 W/m² | - |
| 1778088586 | 16.11° C | 78% | 1014 hPa | 0 mm | - | 0 W/m² | - |
| 1778087686 | 16.67° C | 77% | 1014 hPa | 0 mm | - | 0 W/m² | - |
| 1778086786 | 16.67° C | 78% | 1014 hPa | 0 mm | - | 0 W/m² | - |
| 1778085887 | 16.67° C | 77% | 1014 hPa | 0 mm | - | 0 W/m² | - |
| 1778084986 | 17.22° C | 74% | 1014 hPa | 0 mm | - | 0 W/m² | - |
| 1778084086 | 17.22° C | 73% | 1014 hPa | 0 mm | - | 0 W/m² | - |
| 1778082286 | 17.22° C | 73% | 1014 hPa | 0 mm | - | 0 W/m² | - |
| 1778081387 | 17.22° C | 73% | 1014 hPa | 0 mm | - | 0 W/m² | - |
| 1778080486 | 16.67° C | 74% | 1014 hPa | 0 mm | - | 0 W/m² | - |
| 1778079586 | 16.67° C | 74% | 1014 hPa | 0 mm | - | 0 W/m² | - |
* Rain latest hour (hover to see other rain measurements)
** Current wind speed in m/s (hover to see current wind gust speed)